Westminster, CO

11:57 AM MDT on July 06, 2015 (GMT -0600)
Gold Ridge | | Change Station
CLOSE
Current Station
Personal Weather Station
Location: Arvada, CO
Elevation: 5440 ft
Nearby Weather Stations

Elev 5440 ft 39.83 °N, 105.07 °W | Updated 11 seconds ago

Overcast
Overcast
61.2 °F
Feels Like 61.2 °F
N
0.0
Wind Variable Wind from NE
Gusts 0.0 mph

Today
High -- | Low -- °F
--% Chance of Precip.
Yesterday
High -- | Low -- °F
Precip. -- in
5:38 AM 8:31 PM
Waning Gibbous, 73% visible
Pressure 30.32 in
Visibility 1.5 miles
Clouds Mostly Cloudy 300 ft
Overcast 600 ft
Dew Point 60 °F
Humidity 94%
Rainfall 0.05 in
Snow Depth Not available.
UV 3.0 out of 12
Pollen .60 out of 12
Air Quality Not available.
Flu Activity Not available.
METAR KBJC 061747Z 02008KT 1 1/2SM DZ BKN003 OVC006 15/14 A3032

More Conditions Fewer Conditions

Pressure 30.32 in
Visibility 1.5 miles
Clouds Mostly Cloudy 300 ft
Overcast 600 ft
Dew Point 60 °F
Humidity 94%
Rainfall 0.05 in
Snow Depth Not available.
UV 3.0 out of 12
Pollen .60 out of 12
Air Quality Not available.
Flu Activity Not available.
METAR KBJC 061747Z 02008KT 1 1/2SM DZ BKN003 OVC006 15/14 A3032

More Conditions Fewer Conditions

10-Day Weather Forecast

×

Almanac

Astronomy

Jul. 06, 2015 Rise Set
Actual Time
Civil Twilight
Nautical Twilight
Astronomical Twilight
Moon
Length of Visible Light
Length of Day
Tomorrow will be .
, % of the Moon is Illuminated

Today's Extremes

State Highs State Lows

Community

WunderPhotos

Upload Photos

1,835,607 photos uploaded!

WunderBlogs® & News

Nearby

Air Quality

  Air Quality AQ Index Pollutant
Not available.

Snow Depth

Station Depth Elevation

Earthquake Activity

City Distance Mag. Time & Date
Minimum magnitude displayed is 2.5.

Coastal Water Temperatures

Place Temperature

Stations

Nearby Weather Stations

Station Location Temp. Windchill Dew Point Humidity Wind Precip. Elev Updated Type